Time;durP1;ratioP1;P1;durP2;ratioP2;P2;SDS_P1;SDS_P2;PMS_P1;PMS_P2;Temp;Humidity;BMP_temperature;BMP_pressure;BME280_temperature;BME280_humidity;BME280_pressure;Samples;Min_cycle;Max_cycle;Signal;HPM_P1;HPM_P2
2022/05/15 00:00:41;;;;;;;7.22;2.38;;;14.70;66.70;;;;;;5064474;28;20453;-76
2022/05/15 00:03:12;;;;;;;7.88;2.05;;;14.60;67.00;;;;;;5047862;28;20425;-73
2022/05/15 00:05:40;;;;;;;6.65;2.10;;;14.60;67.10;;;;;;5062426;28;20127;-73
2022/05/15 00:08:09;;;;;;;4.00;1.98;;;14.60;67.20;;;;;;5066276;28;20051;-75
2022/05/15 00:10:38;;;;;;;3.83;1.80;;;14.60;67.20;;;;;;5067154;28;20036;-75
2022/05/15 00:13:06;;;;;;;5.25;1.48;;;14.50;67.30;;;;;;5066293;28;20139;-73
2022/05/15 00:15:35;;;;;;;5.85;1.98;;;14.50;67.30;;;;;;5060342;28;20590;-74
2022/05/15 00:18:02;;;;;;;5.03;1.63;;;14.50;67.40;;;;;;5062734;28;20090;-72
2022/05/15 00:20:30;;;;;;;3.95;1.92;;;14.50;67.50;;;;;;5063069;28;20066;-74
2022/05/15 00:22:58;;;;;;;4.72;1.30;;;14.40;67.70;;;;;;5061369;28;20040;-75
2022/05/15 00:25:25;;;;;;;5.22;1.15;;;14.40;67.80;;;;;;5055787;28;20036;-73
2022/05/15 00:27:52;;;;;;;4.32;1.95;;;14.40;67.80;;;;;;5060648;28;20040;-74
2022/05/15 00:30:20;;;;;;;3.20;1.63;;;14.30;67.90;;;;;;5061326;28;20230;-74
2022/05/15 00:32:50;;;;;;;5.68;1.73;;;14.30;68.10;;;;;;5062829;28;20107;-75
2022/05/15 00:35:17;;;;;;;5.55;1.85;;;14.30;68.30;;;;;;5047907;28;20045;-73
2022/05/15 00:37:44;;;;;;;4.85;1.95;;;14.30;68.30;;;;;;5066650;28;20067;-74
2022/05/15 00:40:13;;;;;;;5.70;2.00;;;14.30;68.40;;;;;;5064116;28;20056;-73
2022/05/15 00:42:40;;;;;;;5.97;2.05;;;14.20;68.50;;;;;;5065170;28;20147;-74
2022/05/15 00:45:08;;;;;;;5.85;1.77;;;14.20;68.60;;;;;;5047006;28;20680;-71
2022/05/15 00:47:35;;;;;;;4.07;1.58;;;14.20;68.50;;;;;;5067244;28;20051;-75
2022/05/15 00:50:07;;;;;;;3.50;1.38;;;14.20;68.70;;;;;;5063641;28;20048;-73
2022/05/15 00:52:37;;;;;;;3.33;1.67;;;14.10;68.80;;;;;;5055445;28;20521;-74
2022/05/15 00:55:08;;;;;;;5.03;2.55;;;14.10;68.80;;;;;;5044943;28;20144;-73
2022/05/15 00:57:38;;;;;;;5.50;1.83;;;14.20;68.80;;;;;;5041851;28;20132;-75
2022/05/15 01:00:09;;;;;;;6.38;1.85;;;14.10;68.80;;;;;;5040234;28;20131;-74
2022/05/15 01:02:39;;;;;;;3.20;1.58;;;14.10;68.80;;;;;;5038914;28;20044;-73
2022/05/15 01:05:10;;;;;;;4.18;1.63;;;14.10;68.80;;;;;;5059905;28;20048;-75
2022/05/15 01:07:37;;;;;;;6.75;2.17;;;14.00;68.90;;;;;;5060183;28;20041;-73
2022/05/15 01:10:07;;;;;;;4.65;2.28;;;14.00;68.90;;;;;;5047367;28;20044;-73
2022/05/15 01:12:36;;;;;;;5.63;2.05;;;14.00;69.00;;;;;;5048296;28;20041;-74
2022/05/15 01:15:04;;;;;;;5.55;1.70;;;13.90;69.10;;;;;;5051259;28;20040;-72
2022/05/15 01:17:32;;;;;;;4.20;1.80;;;13.90;69.00;;;;;;5043182;28;20040;-76
2022/05/15 01:20:03;;;;;;;5.82;1.92;;;13.90;69.10;;;;;;5059129;28;20040;-72
2022/05/15 01:22:32;;;;;;;3.33;1.33;;;13.90;69.20;;;;;;5047266;28;20492;-74
2022/05/15 01:25:00;;;;;;;5.10;1.73;;;13.80;69.10;;;;;;5063383;28;20275;-72
2022/05/15 01:27:27;;;;;;;3.85;1.55;;;13.80;69.30;;;;;;5060806;28;20044;-74
2022/05/15 01:29:54;;;;;;;3.40;1.52;;;13.70;69.40;;;;;;5047402;28;20382;-72
2022/05/15 01:32:21;;;;;;;3.40;1.73;;;13.70;69.50;;;;;;5049547;28;20119;-73
2022/05/15 01:34:48;;;;;;;2.58;1.40;;;13.70;69.50;;;;;;5053185;28;20058;-75
2022/05/15 01:37:15;;;;;;;2.97;1.63;;;13.60;69.60;;;;;;5046866;28;20066;-73
2022/05/15 01:39:43;;;;;;;3.80;1.58;;;13.60;69.60;;;;;;5045902;28;20513;-74
2022/05/15 01:42:10;;;;;;;4.00;1.50;;;13.60;69.60;;;;;;5068152;28;20136;-72
2022/05/15 01:44:37;;;;;;;3.22;1.33;;;13.60;69.70;;;;;;5070636;28;20044;-73
2022/05/15 01:47:05;;;;;;;3.50;1.92;;;13.60;69.90;;;;;;5050907;28;20436;-74
2022/05/15 01:49:33;;;;;;;4.88;1.73;;;13.60;69.80;;;;;;5069293;28;20045;-73
2022/05/15 01:52:01;;;;;;;3.55;1.60;;;13.60;69.80;;;;;;5072868;28;20044;-72
2022/05/15 01:54:28;;;;;;;3.60;1.60;;;13.50;69.90;;;;;;5054957;28;20063;-72
2022/05/15 01:56:56;;;;;;;4.57;2.10;;;13.50;70.00;;;;;;5067854;28;20036;-71
2022/05/15 01:59:23;;;;;;;7.32;2.50;;;13.50;70.10;;;;;;5070735;28;20052;-73
2022/05/15 02:01:50;;;;;;;8.25;2.50;;;13.40;70.20;;;;;;5051654;28;20094;-72
2022/05/15 02:04:19;;;;;;;4.80;2.10;;;13.40;70.30;;;;;;5070227;28;20045;-75
2022/05/15 02:06:46;;;;;;;4.13;2.15;;;13.40;70.40;;;;;;5053770;28;20144;-73
2022/05/15 02:09:13;;;;;;;5.18;2.53;;;13.50;70.30;;;;;;5072117;28;20040;-75
2022/05/15 02:11:40;;;;;;;6.55;2.20;;;13.50;70.30;;;;;;5072029;28;20155;-73
2022/05/15 02:14:08;;;;;;;4.68;2.20;;;13.50;70.40;;;;;;5070945;28;21056;-74
2022/05/15 02:16:38;;;;;;;5.40;2.17;;;13.40;70.30;;;;;;5053058;28;20504;-72
2022/05/15 02:19:06;;;;;;;6.78;2.33;;;13.50;70.40;;;;;;5072542;28;20102;-74
2022/05/15 02:21:33;;;;;;;5.65;2.42;;;13.40;70.60;;;;;;5047172;28;20045;-74
2022/05/15 02:24:00;;;;;;;4.80;2.20;;;13.40;70.50;;;;;;5070056;28;20037;-75
2022/05/15 02:26:30;;;;;;;3.53;2.00;;;13.40;70.60;;;;;;5045215;28;20136;-72
2022/05/15 02:28:56;;;;;;;4.15;2.00;;;13.40;70.70;;;;;;5043258;28;20041;-74
2022/05/15 02:31:25;;;;;;;4.97;1.88;;;13.40;70.80;;;;;;5061776;28;20156;-72
2022/05/15 02:33:52;;;;;;;3.47;2.17;;;13.40;71.00;;;;;;5067996;28;20604;-74
2022/05/15 02:36:19;;;;;;;4.22;2.20;;;13.40;71.20;;;;;;5068244;28;20048;-75
2022/05/15 02:38:48;;;;;;;3.72;2.58;;;13.40;71.30;;;;;;5045928;28;20041;-74
2022/05/15 02:41:15;;;;;;;3.30;1.92;;;13.40;71.40;;;;;;5062086;28;20052;-76
2022/05/15 02:43:43;;;;;;;6.18;2.28;;;13.40;71.40;;;;;;5067750;28;20449;-75
2022/05/15 02:46:10;;;;;;;6.07;2.75;;;13.40;71.30;;;;;;5068692;28;20048;-75
2022/05/15 02:51:23;;;;;;;4.35;1.80;;;13.40;71.10;;;;;;5068340;28;20547;-74
2022/05/15 02:53:51;;;;;;;3.28;2.25;;;13.40;70.90;;;;;;5065666;28;20055;-72
2022/05/15 02:56:20;;;;;;;4.90;2.42;;;13.40;71.00;;;;;;5064532;28;20048;-73
2022/05/15 02:58:47;;;;;;;4.67;2.27;;;13.30;71.10;;;;;;5064244;28;20048;-76
2022/05/15 03:01:15;;;;;;;4.30;2.13;;;13.40;71.00;;;;;;5046800;28;20048;-73
2022/05/15 03:03:44;;;;;;;3.85;2.17;;;13.30;71.10;;;;;;5062600;28;20055;-75
2022/05/15 03:06:12;;;;;;;4.70;2.25;;;13.30;71.00;;;;;;5063275;28;20114;-74
2022/05/15 03:08:44;;;;;;;6.25;2.35;;;13.30;71.00;;;;;;5069337;28;20059;-75
2022/05/15 03:11:12;;;;;;;8.07;2.17;;;13.30;71.00;;;;;;5051565;28;20048;-75
2022/05/15 03:13:39;;;;;;;3.78;2.38;;;13.30;71.20;;;;;;5052248;28;20072;-73
2022/05/15 03:16:08;;;;;;;4.88;2.10;;;13.20;71.40;;;;;;5068617;28;20508;-73
2022/05/15 03:18:39;;;;;;;4.65;2.65;;;13.20;71.40;;;;;;5070093;28;20063;-73
2022/05/15 03:21:08;;;;;;;3.63;2.13;;;13.20;71.50;;;;;;5068225;28;20056;-72
2022/05/15 03:23:35;;;;;;;5.53;2.58;;;13.20;71.60;;;;;;5050411;28;20045;-74
2022/05/15 03:26:02;;;;;;;6.50;1.70;;;13.10;71.70;;;;;;5069063;28;20041;-74
2022/05/15 03:28:29;;;;;;;7.65;2.72;;;13.00;71.80;;;;;;5050392;28;20144;-74
2022/05/15 03:30:56;;;;;;;5.80;3.05;;;13.00;72.10;;;;;;5067983;28;20054;-73
2022/05/15 03:33:23;;;;;;;5.78;2.38;;;13.10;72.10;;;;;;5044742;28;20053;-77
2022/05/15 03:35:50;;;;;;;3.85;2.20;;;13.00;72.10;;;;;;5069132;28;20037;-76
2022/05/15 03:38:18;;;;;;;3.92;2.10;;;13.00;72.10;;;;;;5069529;28;20127;-75
2022/05/15 03:40:45;;;;;;;6.10;2.38;;;13.00;72.10;;;;;;5064943;28;20050;-76
2022/05/15 03:43:12;;;;;;;3.25;2.17;;;13.00;72.10;;;;;;5068280;28;20123;-73
2022/05/15 03:45:39;;;;;;;3.63;1.77;;;12.90;72.20;;;;;;5068832;28;20064;-76
2022/05/15 03:48:06;;;;;;;5.65;2.65;;;12.90;72.20;;;;;;5051672;28;20044;-74
2022/05/15 03:50:34;;;;;;;5.15;2.15;;;12.90;72.20;;;;;;5068437;28;20090;-75
2022/05/15 03:53:00;;;;;;;4.95;2.28;;;12.90;72.30;;;;;;5067806;28;20561;-73
2022/05/15 03:55:29;;;;;;;6.35;2.80;;;12.90;72.30;;;;;;5068490;28;20041;-75
2022/05/15 03:57:56;;;;;;;8.65;2.42;;;12.80;72.40;;;;;;5067904;28;20055;-74
2022/05/15 04:00:24;;;;;;;6.68;2.63;;;12.80;72.50;;;;;;5064133;28;20494;-72
2022/05/15 04:02:52;;;;;;;7.65;2.30;;;12.70;72.60;;;;;;5049042;28;20494;-73
2022/05/15 04:05:19;;;;;;;4.50;2.30;;;12.80;72.60;;;;;;5051794;28;20048;-74
2022/05/15 04:07:48;;;;;;;4.63;2.13;;;12.70;72.60;;;;;;5068839;28;20048;-76
2022/05/15 04:10:18;;;;;;;3.42;2.20;;;12.70;72.70;;;;;;5067312;28;20055;-74
2022/05/15 04:12:47;;;;;;;5.22;1.98;;;12.70;72.70;;;;;;5040890;28;20044;-75
2022/05/15 04:15:15;;;;;;;5.35;2.47;;;12.70;72.70;;;;;;5065094;28;20042;-73
2022/05/15 04:17:43;;;;;;;5.15;2.42;;;12.70;72.70;;;;;;5043059;28;20052;-73
2022/05/15 04:20:12;;;;;;;4.07;2.13;;;12.80;72.80;;;;;;5044917;28;20048;-73
2022/05/15 04:22:43;;;;;;;4.32;2.60;;;12.80;72.90;;;;;;5038640;28;20044;-75
2022/05/15 04:25:11;;;;;;;4.05;2.10;;;12.80;72.90;;;;;;5058942;28;20044;-74
2022/05/15 04:27:39;;;;;;;4.85;2.58;;;12.80;72.90;;;;;;5042769;28;20109;-73
2022/05/15 04:30:10;;;;;;;4.82;2.65;;;12.80;73.10;;;;;;5057921;28;20071;-75
2022/05/15 04:32:36;;;;;;;5.30;2.80;;;12.80;73.30;;;;;;5060682;28;20143;-72
2022/05/15 04:35:05;;;;;;;5.47;2.60;;;12.80;73.40;;;;;;5056867;28;20092;-75
2022/05/15 04:37:33;;;;;;;7.10;2.50;;;12.80;73.40;;;;;;5064624;28;20047;-72
2022/05/15 04:40:00;;;;;;;4.65;2.55;;;12.80;73.50;;;;;;5067131;28;20044;-73
2022/05/15 04:42:27;;;;;;;6.68;2.60;;;12.80;73.50;;;;;;5067387;28;20125;-73
2022/05/15 04:44:54;;;;;;;6.65;2.95;;;12.80;73.50;;;;;;5068722;28;20075;-76
2022/05/15 04:47:22;;;;;;;5.63;2.63;;;12.80;73.40;;;;;;5068439;28;20109;-73
2022/05/15 04:49:49;;;;;;;8.93;2.60;;;12.80;73.30;;;;;;5049466;28;20426;-73
2022/05/15 04:52:16;;;;;;;4.38;1.98;;;12.90;73.40;;;;;;5067199;28;20064;-71
2022/05/15 04:54:43;;;;;;;4.72;2.47;;;12.80;73.40;;;;;;5065246;28;20468;-71
2022/05/15 04:57:11;;;;;;;5.20;2.40;;;12.90;73.40;;;;;;5053212;28;20041;-74
2022/05/15 04:59:38;;;;;;;4.43;2.50;;;12.90;73.40;;;;;;5061240;28;20060;-74
2022/05/15 05:02:05;;;;;;;3.78;1.85;;;13.00;73.30;;;;;;5056354;28;20055;-71
2022/05/15 05:04:33;;;;;;;6.28;2.70;;;13.00;73.10;;;;;;5068449;28;20041;-74
2022/05/15 05:07:00;;;;;;;4.38;2.28;;;13.10;73.20;;;;;;5066886;28;20056;-74
2022/05/15 05:09:27;;;;;;;5.80;2.70;;;13.10;73.10;;;;;;5065270;28;20262;-73
2022/05/15 05:11:55;;;;;;;5.68;2.40;;;13.10;73.30;;;;;;5067128;28;20116;-75
2022/05/15 05:14:22;;;;;;;5.35;2.20;;;13.20;73.30;;;;;;5067297;28;20135;-74
2022/05/15 05:16:49;;;;;;;5.30;2.25;;;13.20;73.20;;;;;;5061808;28;20045;-72
2022/05/15 05:19:16;;;;;;;4.70;2.50;;;13.20;73.20;;;;;;5068941;28;20044;-75
2022/05/15 05:21:45;;;;;;;3.90;2.28;;;13.30;73.20;;;;;;5062541;28;20109;-74
2022/05/15 05:24:11;;;;;;;6.82;2.50;;;13.30;73.10;;;;;;5058228;28;20355;-73
2022/05/15 05:26:39;;;;;;;5.97;3.25;;;13.40;73.10;;;;;;5060240;28;20036;-73
2022/05/15 05:29:06;;;;;;;4.00;2.35;;;13.40;73.00;;;;;;5062932;28;20036;-74
2022/05/15 05:31:33;;;;;;;4.75;2.28;;;13.50;72.90;;;;;;5060570;28;20043;-73
2022/05/15 05:34:00;;;;;;;6.00;2.42;;;13.60;72.80;;;;;;5057948;28;20056;-74
2022/05/15 05:36:27;;;;;;;5.80;2.35;;;13.60;72.80;;;;;;5060865;28;20063;-74
2022/05/15 05:38:56;;;;;;;6.10;2.70;;;13.60;72.70;;;;;;5059732;28;20048;-75
2022/05/15 05:41:22;;;;;;;5.43;2.35;;;13.70;72.70;;;;;;5061334;28;20118;-72
2022/05/15 05:43:49;;;;;;;3.63;2.22;;;13.70;72.60;;;;;;5058330;28;20039;-73
2022/05/15 05:46:16;;;;;;;6.60;2.80;;;13.70;72.50;;;;;;5058685;28;20127;-73
2022/05/15 05:48:45;;;;;;;4.93;2.50;;;13.70;72.60;;;;;;5060156;28;20043;-75
2022/05/15 05:51:13;;;;;;;4.40;2.42;;;13.70;72.60;;;;;;5059761;28;20072;-72
2022/05/15 05:53:40;;;;;;;8.32;2.95;;;13.70;72.90;;;;;;5060203;28;20050;-72
2022/05/15 05:56:08;;;;;;;6.20;2.65;;;13.80;72.80;;;;;;5062960;28;20121;-72
2022/05/15 05:58:36;;;;;;;4.03;2.08;;;13.80;72.80;;;;;;5057168;28;20699;-72
2022/05/15 06:01:03;;;;;;;7.95;3.08;;;13.90;72.80;;;;;;5057424;28;20139;-73
2022/05/15 06:06:15;;;;;;;4.40;2.75;;;13.90;72.40;;;;;;5059282;28;20028;-74
2022/05/15 06:08:42;;;;;;;4.05;2.53;;;14.00;72.60;;;;;;5062161;28;20120;-72
2022/05/15 06:11:11;;;;;;;6.65;2.63;;;14.00;72.80;;;;;;5062103;28;20037;-72
2022/05/15 06:13:39;;;;;;;6.07;3.22;;;14.10;72.90;;;;;;5063497;28;20136;-73
2022/05/15 06:16:09;;;;;;;6.20;3.00;;;14.20;72.50;;;;;;5063263;28;20807;-72
2022/05/15 06:18:37;;;;;;;5.20;2.53;;;14.20;72.30;;;;;;5063475;28;22758;-73
2022/05/15 06:21:04;;;;;;;5.93;2.58;;;14.20;72.20;;;;;;5064703;28;20115;-73
2022/05/15 06:23:31;;;;;;;5.63;2.75;;;14.30;71.90;;;;;;5062094;28;20037;-73
2022/05/15 06:25:57;;;;;;;6.85;2.55;;;14.40;72.20;;;;;;5059312;28;20060;-75
2022/05/15 06:28:26;;;;;;;8.32;3.13;;;14.40;72.20;;;;;;5065252;28;20056;-74
2022/05/15 06:30:53;;;;;;;10.93;2.92;;;14.50;72.10;;;;;;5067807;28;20123;-74
2022/05/15 06:33:20;;;;;;;7.80;3.03;;;14.60;71.90;;;;;;5070598;28;20048;-74
2022/05/15 06:35:47;;;;;;;6.57;3.20;;;14.70;71.90;;;;;;5068247;28;20123;-74
2022/05/15 06:38:14;;;;;;;5.82;2.33;;;14.80;71.80;;;;;;5067554;28;20048;-75
2022/05/15 06:40:40;;;;;;;10.75;2.85;;;15.00;71.80;;;;;;5060964;28;20120;-75
2022/05/15 06:43:07;;;;;;;9.13;2.97;;;15.10;71.70;;;;;;5062699;28;20066;-72
2022/05/15 06:45:36;;;;;;;5.53;2.53;;;15.20;71.60;;;;;;5060804;28;20040;-76
2022/05/15 06:48:04;;;;;;;5.50;2.75;;;15.40;71.50;;;;;;5063225;28;20052;-74
2022/05/15 06:50:30;;;;;;;6.63;2.60;;;15.60;71.40;;;;;;5062974;28;20174;-74
2022/05/15 06:52:57;;;;;;;6.03;2.42;;;15.70;71.60;;;;;;5062616;28;20185;-72
2022/05/15 06:55:25;;;;;;;6.47;2.92;;;15.80;71.40;;;;;;5062210;28;20036;-75
2022/05/15 06:57:51;;;;;;;5.07;2.53;;;16.00;71.10;;;;;;5063683;28;20037;-74
2022/05/15 07:00:20;;;;;;;7.82;2.65;;;16.10;70.80;;;;;;5060522;28;20135;-76
2022/05/15 07:02:50;;;;;;;5.07;2.17;;;16.30;70.40;;;;;;5066356;28;20037;-74
2022/05/15 07:05:21;;;;;;;6.47;3.13;;;16.40;70.70;;;;;;5062958;28;20078;-74
2022/05/15 07:07:48;;;;;;;5.93;2.83;;;16.60;70.30;;;;;;5060876;28;20557;-75
2022/05/15 07:10:15;;;;;;;8.18;2.67;;;16.70;70.00;;;;;;5061284;28;20036;-75
2022/05/15 07:12:42;;;;;;;7.20;2.38;;;16.90;69.40;;;;;;5064223;28;20115;-72
2022/05/15 07:15:09;;;;;;;7.65;2.70;;;17.10;69.20;;;;;;5062589;28;20048;-74
2022/05/15 07:17:37;;;;;;;8.43;2.33;;;17.20;69.00;;;;;;5061966;28;20051;-75
2022/05/15 07:20:06;;;;;;;8.98;3.75;;;17.30;68.30;;;;;;5063085;28;20037;-74
2022/05/15 07:22:34;;;;;;;5.22;2.28;;;17.50;68.00;;;;;;5063335;28;20041;-72
2022/05/15 07:25:01;;;;;;;4.43;2.10;;;17.70;67.40;;;;;;5062420;28;20813;-74
2022/05/15 07:27:28;;;;;;;4.97;2.35;;;17.80;67.20;;;;;;5060374;28;20040;-73
2022/05/15 07:29:55;;;;;;;6.90;2.08;;;17.90;66.50;;;;;;5063245;28;20047;-74
2022/05/15 07:32:22;;;;;;;5.25;2.03;;;18.10;66.40;;;;;;5064175;28;20052;-74
2022/05/15 07:34:50;;;;;;;5.22;1.90;;;18.20;66.40;;;;;;5041335;28;20056;-74
2022/05/15 07:37:18;;;;;;;6.00;2.05;;;18.30;66.10;;;;;;5065948;28;20115;-74
2022/05/15 07:39:45;;;;;;;5.55;2.20;;;18.40;66.20;;;;;;5061753;28;20043;-73
2022/05/15 07:42:12;;;;;;;6.40;2.20;;;18.60;65.20;;;;;;5061003;28;20127;-72
2022/05/15 07:44:40;;;;;;;7.35;2.50;;;18.70;64.90;;;;;;5062929;28;20071;-74
2022/05/15 07:47:09;;;;;;;7.07;2.10;;;18.90;64.80;;;;;;5063097;28;20068;-71
2022/05/15 07:49:37;;;;;;;10.75;2.80;;;18.90;64.70;;;;;;5060122;28;20036;-74
2022/05/15 07:52:05;;;;;;;5.38;2.25;;;19.10;63.50;;;;;;5062525;28;20803;-73
2022/05/15 07:54:33;;;;;;;8.25;2.28;;;19.20;63.60;;;;;;5061646;28;20048;-74
2022/05/15 07:57:00;;;;;;;8.48;2.15;;;19.30;63.40;;;;;;5062489;28;20040;-77
2022/05/15 07:59:28;;;;;;;5.30;1.50;;;19.50;62.30;;;;;;5061327;28;20066;-74
2022/05/15 08:01:55;;;;;;;4.65;2.10;;;19.60;62.00;;;;;;5060285;28;20546;-68
2022/05/15 08:04:22;;;;;;;4.53;1.90;;;19.70;61.40;;;;;;5063304;28;20049;-68
2022/05/15 08:09:36;;;;;;;6.07;2.28;;;19.90;60.90;;;;;;5066861;28;20132;-67
2022/05/15 08:12:05;;;;;;;7.50;2.08;;;20.00;60.30;;;;;;5067952;28;20175;-68
2022/05/15 08:14:32;;;;;;;4.75;2.15;;;20.10;60.50;;;;;;5067187;28;20079;-67
2022/05/15 08:17:00;;;;;;;6.32;1.88;;;20.20;60.70;;;;;;5064453;28;20044;-66
2022/05/15 08:25:01;;;;;;;4.13;2.13;;;20.40;60.20;;;;;;5058533;28;20040;-69
2022/05/15 08:27:28;;;;;;;8.88;2.03;;;20.50;59.20;;;;;;5064580;28;20055;-68
2022/05/15 08:29:55;;;;;;;7.07;1.83;;;20.60;58.90;;;;;;5063341;28;20045;-67
2022/05/15 08:32:22;;;;;;;5.75;1.85;;;20.60;59.30;;;;;;5061891;28;20040;-69
2022/05/15 08:34:49;;;;;;;11.20;2.90;;;20.70;58.40;;;;;;5059960;28;20072;-68
2022/05/15 08:37:16;;;;;;;4.25;1.60;;;20.80;58.30;;;;;;5062707;28;20043;-66
2022/05/15 08:39:43;;;;;;;8.63;2.20;;;20.90;58.00;;;;;;5062975;28;20136;-68
2022/05/15 08:42:21;;;;;;;6.70;2.05;;;21.10;58.20;;;;;;5061876;28;20047;-68
2022/05/15 08:44:51;;;;;;;6.55;1.90;;;21.10;57.70;;;;;;5057062;28;20048;-65
2022/05/15 08:47:23;;;;;;;4.85;1.80;;;21.20;57.40;;;;;;5060687;28;20163;-66
2022/05/15 08:49:53;;;;;;;10.07;2.70;;;21.30;57.30;;;;;;5059901;28;20128;-67
2022/05/15 08:52:26;;;;;;;3.65;1.70;;;21.40;57.20;;;;;;5064479;28;20049;-67
2022/05/15 08:54:57;;;;;;;5.68;2.10;;;21.50;56.20;;;;;;5059200;28;20055;-67
2022/05/15 08:57:35;;;;;;;6.43;1.95;;;21.60;55.80;;;;;;5054267;28;20422;-66
2022/05/15 09:00:05;;;;;;;4.13;2.10;;;21.60;55.10;;;;;;5058905;28;20044;-66
2022/05/15 09:02:32;;;;;;;4.43;1.55;;;21.80;54.70;;;;;;5060864;28;20111;-67
2022/05/15 09:04:59;;;;;;;5.60;1.95;;;21.80;54.70;;;;;;5041609;28;20059;-66
2022/05/15 09:07:38;;;;;;;5.85;2.13;;;21.90;54.90;;;;;;5061530;28;20041;-66
2022/05/15 09:10:21;;;;;;;4.40;1.73;;;22.00;53.60;;;;;;5059551;28;20048;-67
2022/05/15 09:12:57;;;;;;;5.70;2.08;;;22.10;53.70;;;;;;5060167;28;20041;-67
2022/05/15 09:15:29;;;;;;;7.25;2.00;;;22.10;53.10;;;;;;5057946;28;20044;-68
2022/05/15 09:18:02;;;;;;;4.55;1.85;;;22.20;52.80;;;;;;5058111;28;20043;-69
2022/05/15 09:20:46;;;;;;;3.72;1.60;;;22.30;53.60;;;;;;5054933;28;20106;-68
2022/05/15 09:23:22;;;;;;;5.28;1.52;;;22.30;53.70;;;;;;5059655;28;20448;-66
2022/05/15 09:25:54;;;;;;;4.82;1.60;;;22.40;53.20;;;;;;5059952;28;20043;-66
2022/05/15 09:28:26;;;;;;;6.95;1.55;;;22.50;52.60;;;;;;5050499;28;20086;-67
2022/05/15 09:30:55;;;;;;;4.22;1.42;;;22.60;52.10;;;;;;5061543;28;20029;-67
2022/05/15 09:33:32;;;;;;;4.25;1.52;;;22.60;51.60;;;;;;5050794;28;20051;-68
2022/05/15 09:36:21;;;;;;;4.07;1.45;;;22.70;51.70;;;;;;5053745;28;20283;-69
2022/05/15 09:38:50;;;;;;;4.18;1.33;;;22.70;52.20;;;;;;5060211;28;20053;-68
2022/05/15 09:44:07;;;;;;;3.55;1.50;;;22.90;52.10;;;;;;5062210;28;20466;-66
2022/05/15 09:46:34;;;;;;;3.60;1.80;;;22.90;50.90;;;;;;5067410;28;20051;-69
2022/05/15 09:49:06;;;;;;;4.53;1.50;;;23.00;50.40;;;;;;5062976;28;20041;-66
2022/05/15 09:51:43;;;;;;;4.20;1.55;;;23.00;49.90;;;;;;5066483;28;20045;-66
2022/05/15 09:54:27;;;;;;;4.75;1.67;;;23.10;49.70;;;;;;5061616;28;20044;-69
2022/05/15 09:57:09;;;;;;;3.35;1.40;;;23.10;49.80;;;;;;5041786;28;20048;-68
2022/05/15 09:59:37;;;;;;;4.47;1.52;;;23.20;49.30;;;;;;5060558;28;20635;-68
2022/05/15 10:02:05;;;;;;;3.67;1.27;;;23.20;49.30;;;;;;5066806;28;20497;-68
2022/05/15 10:04:38;;;;;;;4.93;1.70;;;23.20;49.10;;;;;;5066257;28;20037;-69
2022/05/15 10:07:07;;;;;;;4.90;1.65;;;23.30;48.60;;;;;;5069930;28;20043;-67
2022/05/15 10:09:35;;;;;;;;;;;23.30;48.40;;;;;;5054967;28;20045;-66
2022/05/15 10:12:07;;;;;;;6.72;2.58;;;23.30;47.90;;;;;;5070795;28;19925;-65
2022/05/15 10:14:41;;;;;;;5.50;2.30;;;23.40;48.60;;;;;;5067527;28;20045;-68
2022/05/15 10:17:09;;;;;;;6.40;2.20;;;23.50;47.50;;;;;;5065113;28;20094;-68
2022/05/15 10:19:43;;;;;;;6.60;2.03;;;23.50;47.40;;;;;;5062925;28;20032;-68
2022/05/15 10:22:28;;;;;;;4.65;2.25;;;23.50;46.90;;;;;;5063615;28;20045;-66
2022/05/15 10:25:01;;;;;;;5.18;2.13;;;23.40;46.90;;;;;;5061530;28;20631;-67
2022/05/15 10:27:35;;;;;;;8.15;3.30;;;23.50;46.60;;;;;;5054045;28;20044;-67
2022/05/15 10:30:11;;;;;;;5.03;1.92;;;23.60;47.20;;;;;;5062728;28;20123;-68
2022/05/15 10:32:41;;;;;;;3.35;1.80;;;23.60;46.30;;;;;;5063249;28;20122;-67
2022/05/15 10:35:11;;;;;;;6.18;1.88;;;23.60;46.20;;;;;;5059947;28;20048;-68
2022/05/15 10:38:04;;;;;;;5.25;1.75;;;23.60;45.60;;;;;;5062698;28;20047;-68
2022/05/15 10:40:36;;;;;;;6.10;2.03;;;23.60;45.80;;;;;;5062695;28;20041;-67
2022/05/15 10:43:18;;;;;;;6.15;2.08;;;23.60;46.00;;;;;;5062480;28;20121;-69
2022/05/15 10:45:53;;;;;;;4.25;1.38;;;23.80;46.30;;;;;;5061182;28;20155;-68
2022/05/15 10:48:38;;;;;;;5.28;1.80;;;23.80;45.90;;;;;;5060743;28;20056;-68
2022/05/15 10:51:13;;;;;;;5.72;1.63;;;23.90;46.50;;;;;;5067611;28;20188;-68
2022/05/15 10:59:50;;;;;;;2.90;1.02;;;24.00;45.60;;;;;;5060789;28;20044;-67
2022/05/15 11:02:52;;;;;;;4.97;1.30;;;24.00;45.40;;;;;;5064982;28;20044;-65
2022/05/15 11:05:26;;;;;;;3.40;1.60;;;24.00;45.00;;;;;;5051774;28;20441;-69
2022/05/15 11:08:01;;;;;;;4.45;1.70;;;24.00;45.30;;;;;;5068684;28;20068;-68
2022/05/15 11:10:45;;;;;;;5.22;1.70;;;24.10;45.10;;;;;;5066007;28;20045;-66
2022/05/15 11:13:21;;;;;;;2.47;1.10;;;24.10;44.40;;;;;;5060769;28;20391;-68
2022/05/15 11:15:58;;;;;;;2.85;1.15;;;24.10;44.10;;;;;;5059946;28;20049;-67
2022/05/15 11:18:46;;;;;;;3.25;1.17;;;24.10;43.80;;;;;;5060705;28;20048;-67
2022/05/15 11:21:20;;;;;;;3.38;1.42;;;24.00;43.70;;;;;;5060160;28;20032;-69
2022/05/15 11:23:53;;;;;;;7.95;1.50;;;24.10;44.20;;;;;;5061818;28;20036;-68
2022/05/15 11:26:25;;;;;;;3.38;1.35;;;24.20;44.40;;;;;;5059988;28;20046;-70
2022/05/15 11:28:56;;;;;;;3.83;1.33;;;24.30;43.80;;;;;;5058993;28;20160;-67
2022/05/15 11:31:30;;;;;;;5.38;1.30;;;24.20;43.60;;;;;;5066463;28;20076;-68
2022/05/15 11:34:02;;;;;;;3.35;1.27;;;24.20;43.90;;;;;;5066285;28;20053;-67
2022/05/15 11:36:36;;;;;;;2.97;1.30;;;24.20;43.60;;;;;;5066047;28;20685;-68
2022/05/15 11:39:24;;;;;;;4.05;1.50;;;24.20;43.30;;;;;;5069000;28;20047;-67
2022/05/15 11:42:17;;;;;;;3.25;1.02;;;24.20;43.50;;;;;;5068592;28;20573;-68
2022/05/15 11:44:46;;;;;;;3.00;1.20;;;24.20;43.00;;;;;;5064082;28;20440;-67
2022/05/15 11:47:23;;;;;;;;;;;24.20;43.10;;;;;;5064519;28;20043;-68
2022/05/15 11:50:10;;;;;;;2.65;0.95;;;24.30;42.90;;;;;;5055735;28;19920;-69
2022/05/15 11:52:41;;;;;;;3.72;1.02;;;24.40;43.00;;;;;;5062308;28;20036;-69
2022/05/15 11:55:41;;;;;;;3.47;0.95;;;24.40;42.30;;;;;;5063016;28;20048;-68
2022/05/15 11:58:37;;;;;;;3.30;0.90;;;24.40;42.40;;;;;;5060136;28;20272;-68
2022/05/15 12:01:12;;;;;;;2.92;1.00;;;24.40;42.50;;;;;;5063527;28;20055;-66
2022/05/15 12:04:01;;;;;;;4.28;1.60;;;24.40;42.50;;;;;;5059095;28;20041;-67
2022/05/15 12:06:32;;;;;;;3.67;1.02;;;24.30;42.30;;;;;;5057296;28;20069;-68
2022/05/15 12:09:26;;;;;;;3.30;1.38;;;24.30;42.80;;;;;;5060792;28;20132;-67
2022/05/15 12:11:54;;;;;;;2.40;1.05;;;24.40;42.80;;;;;;5065928;28;20032;-68
2022/05/15 12:14:35;;;;;;;4.60;1.30;;;24.50;43.00;;;;;;5070012;28;20046;-67
2022/05/15 12:17:18;;;;;;;2.38;1.02;;;24.60;42.90;;;;;;5068510;28;20049;-68
2022/05/15 12:19:46;;;;;;;3.42;1.30;;;24.50;42.90;;;;;;5063227;28;20044;-66
2022/05/15 12:22:17;;;;;;;5.47;1.88;;;24.60;43.20;;;;;;5067021;28;20029;-66
2022/05/15 12:24:47;;;;;;;3.95;0.93;;;24.70;42.80;;;;;;5060407;28;20052;-67
2022/05/15 12:27:21;;;;;;;1.23;0.68;;;24.70;42.40;;;;;;5065118;28;20045;-69
2022/05/15 12:30:02;;;;;;;4.30;1.40;;;24.70;42.50;;;;;;5069189;28;20123;-67
2022/05/15 12:32:34;;;;;;;3.35;1.52;;;24.60;42.40;;;;;;5068986;28;20041;-68
2022/05/15 12:35:02;;;;;;;2.92;1.02;;;24.60;42.50;;;;;;5069955;28;20105;-68
2022/05/15 12:37:34;;;;;;;2.90;1.00;;;24.50;42.60;;;;;;5069994;28;20478;-67
2022/05/15 12:40:03;;;;;;;2.97;1.00;;;24.50;42.50;;;;;;5069875;28;20036;-68
2022/05/15 12:42:37;;;;;;;2.38;1.10;;;24.50;42.50;;;;;;5070273;28;20061;-68
2022/05/15 12:45:09;;;;;;;4.40;1.42;;;24.50;42.20;;;;;;5063966;28;20056;-68
2022/05/15 12:47:37;;;;;;;4.85;0.95;;;24.40;41.80;;;;;;5043088;28;20049;-69
2022/05/15 12:50:11;;;;;;;2.83;0.98;;;24.40;42.00;;;;;;5065375;28;20033;-67
2022/05/15 12:52:40;;;;;;;3.60;0.88;;;24.30;42.10;;;;;;5059734;28;20044;-68
2022/05/15 12:55:10;;;;;;;3.25;1.10;;;24.30;41.80;;;;;;5058382;28;20122;-68
2022/05/15 12:57:44;;;;;;;5.40;1.52;;;24.40;41.70;;;;;;5065511;28;20616;-68
2022/05/15 13:00:14;;;;;;;4.32;1.10;;;24.50;42.30;;;;;;5065860;28;20044;-66
2022/05/15 13:02:42;;;;;;;2.95;1.00;;;24.50;42.20;;;;;;5064516;28;20062;-66
2022/05/15 13:05:20;;;;;;;3.75;0.90;;;24.60;42.40;;;;;;5062438;28;20114;-66
2022/05/15 13:07:55;;;;;;;2.35;0.93;;;24.60;42.00;;;;;;5061983;28;20071;-68
2022/05/15 13:10:24;;;;;;;3.75;1.23;;;24.50;42.20;;;;;;5065888;28;20045;-68
2022/05/15 13:12:55;;;;;;;2.30;0.80;;;24.40;42.30;;;;;;5063800;28;20036;-69
2022/05/15 13:15:25;;;;;;;3.38;1.25;;;24.30;42.20;;;;;;5061875;28;20048;-67
2022/05/15 13:17:54;;;;;;;2.78;1.00;;;24.30;41.90;;;;;;5061098;28;20498;-68
2022/05/15 13:20:22;;;;;;;;;;;24.20;42.10;;;;;;5062020;28;20048;-68
2022/05/15 13:22:52;;;;;;;2.63;1.05;;;24.10;42.00;;;;;;5066692;28;19921;-68
2022/05/15 13:25:23;;;;;;;2.85;0.90;;;24.10;41.70;;;;;;5066166;28;20127;-68